sensor_id;sensor_type;location;lat;lon;timestamp;pressure;altitude;pressure_sealevel;temperature;humidity
55271;BME280;41132;47.162;9.470;2023-03-14T00:01:46;95091.84;;;12.15;83.48
55271;BME280;41132;47.162;9.470;2023-03-14T00:04:12;95115.50;;;11.95;89.68
55271;BME280;41132;47.162;9.470;2023-03-14T00:06:37;95104.56;;;11.98;90.44
55271;BME280;41132;47.162;9.470;2023-03-14T00:09:03;95120.94;;;11.93;94.54
55271;BME280;41132;47.162;9.470;2023-03-14T00:11:28;95111.69;;;11.62;96.40
55271;BME280;41132;47.162;9.470;2023-03-14T00:13:55;95094.25;;;11.48;97.36
55271;BME280;41132;47.162;9.470;2023-03-14T00:16:20;95091.44;;;11.49;100.00
55271;BME280;41132;47.162;9.470;2023-03-14T00:18:46;95094.34;;;11.26;100.00
55271;BME280;41132;47.162;9.470;2023-03-14T00:21:12;95100.13;;;11.50;100.00
55271;BME280;41132;47.162;9.470;2023-03-14T00:23:40;95110.06;;;11.20;100.00
55271;BME280;41132;47.162;9.470;2023-03-14T00:26:11;95110.16;;;11.40;100.00
55271;BME280;41132;47.162;9.470;2023-03-14T00:28:37;95110.19;;;11.46;100.00
55271;BME280;41132;47.162;9.470;2023-03-14T00:31:06;95103.41;;;11.17;100.00
55271;BME280;41132;47.162;9.470;2023-03-14T00:33:32;95119.94;;;11.18;100.00
55271;BME280;41132;47.162;9.470;2023-03-14T00:36:00;95128.41;;;11.13;100.00
55271;BME280;41132;47.162;9.470;2023-03-14T00:38:27;95140.16;;;10.89;100.00
55271;BME280;41132;47.162;9.470;2023-03-14T00:40:52;95146.03;;;10.91;100.00
55271;BME280;41132;47.162;9.470;2023-03-14T00:43:18;95151.31;;;10.98;100.00
55271;BME280;41132;47.162;9.470;2023-03-14T00:45:46;95157.53;;;10.90;100.00
55271;BME280;41132;47.162;9.470;2023-03-14T00:48:12;95169.34;;;10.79;100.00
55271;BME280;41132;47.162;9.470;2023-03-14T00:50:38;95169.66;;;10.48;100.00
55271;BME280;41132;47.162;9.470;2023-03-14T00:53:04;95171.97;;;10.36;100.00
55271;BME280;41132;47.162;9.470;2023-03-14T00:55:29;95168.94;;;10.18;100.00
55271;BME280;41132;47.162;9.470;2023-03-14T00:57:55;95175.78;;;10.19;100.00
55271;BME280;41132;47.162;9.470;2023-03-14T01:00:20;95187.22;;;10.11;100.00
55271;BME280;41132;47.162;9.470;2023-03-14T01:02:45;95188.19;;;10.10;100.00
55271;BME280;41132;47.162;9.470;2023-03-14T01:05:11;95200.31;;;10.11;100.00
55271;BME280;41132;47.162;9.470;2023-03-14T01:07:37;95197.50;;;10.13;100.00
55271;BME280;41132;47.162;9.470;2023-03-14T01:10:03;95202.91;;;10.26;100.00
55271;BME280;41132;47.162;9.470;2023-03-14T01:12:29;95201.81;;;10.35;100.00
55271;BME280;41132;47.162;9.470;2023-03-14T01:14:54;95188.28;;;10.32;100.00
55271;BME280;41132;47.162;9.470;2023-03-14T01:17:19;95169.13;;;10.31;100.00
55271;BME280;41132;47.162;9.470;2023-03-14T01:19:45;95185.03;;;10.15;100.00
55271;BME280;41132;47.162;9.470;2023-03-14T01:22:10;95185.25;;;9.98;100.00
55271;BME280;41132;47.162;9.470;2023-03-14T01:24:36;95183.38;;;9.77;100.00
55271;BME280;41132;47.162;9.470;2023-03-14T01:27:02;95185.78;;;9.94;100.00
55271;BME280;41132;47.162;9.470;2023-03-14T01:29:27;95187.69;;;10.00;100.00
55271;BME280;41132;47.162;9.470;2023-03-14T01:31:53;95171.72;;;9.95;100.00
55271;BME280;41132;47.162;9.470;2023-03-14T01:34:18;95161.72;;;10.05;100.00
55271;BME280;41132;47.162;9.470;2023-03-14T01:36:43;95142.81;;;9.88;100.00
55271;BME280;41132;47.162;9.470;2023-03-14T01:39:09;95153.97;;;9.97;100.00
55271;BME280;41132;47.162;9.470;2023-03-14T01:41:35;95149.88;;;9.58;100.00
55271;BME280;41132;47.162;9.470;2023-03-14T01:44:00;95129.75;;;9.44;100.00
55271;BME280;41132;47.162;9.470;2023-03-14T01:46:34;95133.38;;;9.43;100.00
55271;BME280;41132;47.162;9.470;2023-03-14T01:52:04;95129.59;;;9.45;100.00
55271;BME280;41132;47.162;9.470;2023-03-14T01:57:11;95122.25;;;9.55;100.00
55271;BME280;41132;47.162;9.470;2023-03-14T01:59:40;95135.81;;;9.59;100.00
55271;BME280;41132;47.162;9.470;2023-03-14T02:02:09;95142.31;;;9.48;100.00
55271;BME280;41132;47.162;9.470;2023-03-14T02:04:38;95133.81;;;9.46;100.00
55271;BME280;41132;47.162;9.470;2023-03-14T02:09:46;95129.66;;;9.37;100.00
55271;BME280;41132;47.162;9.470;2023-03-14T02:12:14;95140.59;;;9.40;100.00
55271;BME280;41132;47.162;9.470;2023-03-14T02:14:40;95132.84;;;9.32;100.00
55271;BME280;41132;47.162;9.470;2023-03-14T02:17:07;95133.47;;;9.34;100.00
55271;BME280;41132;47.162;9.470;2023-03-14T02:19:43;95154.69;;;9.39;100.00
55271;BME280;41132;47.162;9.470;2023-03-14T02:22:14;95155.69;;;9.38;100.00
55271;BME280;41132;47.162;9.470;2023-03-14T02:24:50;95153.41;;;9.35;100.00
55271;BME280;41132;47.162;9.470;2023-03-14T02:27:20;95158.75;;;9.27;100.00
55271;BME280;41132;47.162;9.470;2023-03-14T02:29:51;95144.75;;;9.20;100.00
55271;BME280;41132;47.162;9.470;2023-03-14T02:32:19;95153.50;;;9.12;100.00
55271;BME280;41132;47.162;9.470;2023-03-14T02:34:48;95145.84;;;9.11;100.00
55271;BME280;41132;47.162;9.470;2023-03-14T02:37:16;95138.91;;;9.18;100.00
55271;BME280;41132;47.162;9.470;2023-03-14T02:39:45;95133.84;;;9.02;100.00
55271;BME280;41132;47.162;9.470;2023-03-14T02:42:12;95120.00;;;9.08;100.00
55271;BME280;41132;47.162;9.470;2023-03-14T02:47:32;95103.47;;;8.77;100.00
55271;BME280;41132;47.162;9.470;2023-03-14T02:50:06;95105.09;;;8.78;100.00
55271;BME280;41132;47.162;9.470;2023-03-14T02:52:32;95083.63;;;8.83;100.00
55271;BME280;41132;47.162;9.470;2023-03-14T02:54:57;95071.00;;;8.87;100.00
55271;BME280;41132;47.162;9.470;2023-03-14T02:57:22;95058.28;;;8.69;100.00
55271;BME280;41132;47.162;9.470;2023-03-14T02:59:48;95052.66;;;8.72;100.00
55271;BME280;41132;47.162;9.470;2023-03-14T03:02:13;95053.56;;;8.64;100.00
55271;BME280;41132;47.162;9.470;2023-03-14T03:04:38;95074.97;;;8.68;100.00
55271;BME280;41132;47.162;9.470;2023-03-14T03:07:04;95082.19;;;8.66;100.00
55271;BME280;41132;47.162;9.470;2023-03-14T03:09:29;95091.38;;;8.76;100.00
55271;BME280;41132;47.162;9.470;2023-03-14T03:11:55;95085.53;;;8.74;100.00
55271;BME280;41132;47.162;9.470;2023-03-14T03:14:20;95082.00;;;8.82;100.00
55271;BME280;41132;47.162;9.470;2023-03-14T03:16:45;95087.75;;;8.63;100.00
55271;BME280;41132;47.162;9.470;2023-03-14T03:19:11;95075.19;;;8.58;100.00
55271;BME280;41132;47.162;9.470;2023-03-14T03:21:38;95082.53;;;8.40;100.00
55271;BME280;41132;47.162;9.470;2023-03-14T03:24:04;95075.75;;;8.30;100.00
55271;BME280;41132;47.162;9.470;2023-03-14T03:26:29;95092.06;;;8.32;100.00
55271;BME280;41132;47.162;9.470;2023-03-14T03:28:55;95078.19;;;8.32;100.00
55271;BME280;41132;47.162;9.470;2023-03-14T03:31:20;95091.31;;;8.24;100.00
55271;BME280;41132;47.162;9.470;2023-03-14T03:33:45;95092.25;;;8.31;100.00
55271;BME280;41132;47.162;9.470;2023-03-14T03:36:11;95083.44;;;8.32;100.00
55271;BME280;41132;47.162;9.470;2023-03-14T03:38:36;95091.16;;;8.48;100.00
55271;BME280;41132;47.162;9.470;2023-03-14T03:41:04;95101.34;;;8.58;100.00
55271;BME280;41132;47.162;9.470;2023-03-14T03:43:29;95116.50;;;8.40;100.00
55271;BME280;41132;47.162;9.470;2023-03-14T03:45:55;95108.56;;;8.33;100.00
55271;BME280;41132;47.162;9.470;2023-03-14T03:48:20;95096.78;;;8.37;100.00
55271;BME280;41132;47.162;9.470;2023-03-14T03:50:46;95095.47;;;8.41;100.00
55271;BME280;41132;47.162;9.470;2023-03-14T03:53:11;95092.44;;;8.52;100.00
55271;BME280;41132;47.162;9.470;2023-03-14T03:55:37;95082.84;;;8.45;100.00
55271;BME280;41132;47.162;9.470;2023-03-14T03:58:02;95069.97;;;8.58;100.00
55271;BME280;41132;47.162;9.470;2023-03-14T04:00:27;95073.31;;;8.67;100.00
55271;BME280;41132;47.162;9.470;2023-03-14T04:02:53;95073.59;;;8.72;100.00
55271;BME280;41132;47.162;9.470;2023-03-14T04:05:19;95078.56;;;8.67;100.00
55271;BME280;41132;47.162;9.470;2023-03-14T04:07:44;95077.78;;;8.81;100.00
55271;BME280;41132;47.162;9.470;2023-03-14T04:10:09;95081.81;;;8.69;100.00
55271;BME280;41132;47.162;9.470;2023-03-14T04:12:35;95088.38;;;8.27;100.00
55271;BME280;41132;47.162;9.470;2023-03-14T04:15:00;95086.63;;;8.42;100.00
55271;BME280;41132;47.162;9.470;2023-03-14T04:17:26;95087.75;;;8.40;100.00
55271;BME280;41132;47.162;9.470;2023-03-14T04:19:51;95092.78;;;8.49;100.00
55271;BME280;41132;47.162;9.470;2023-03-14T04:22:19;95103.00;;;8.59;100.00
55271;BME280;41132;47.162;9.470;2023-03-14T04:24:44;95103.97;;;8.58;100.00
55271;BME280;41132;47.162;9.470;2023-03-14T04:27:09;95096.78;;;8.37;100.00
55271;BME280;41132;47.162;9.470;2023-03-14T04:29:35;95097.22;;;8.64;100.00
55271;BME280;41132;47.162;9.470;2023-03-14T04:32:00;95101.88;;;8.53;100.00
55271;BME280;41132;47.162;9.470;2023-03-14T04:34:25;95087.91;;;8.46;100.00
55271;BME280;41132;47.162;9.470;2023-03-14T04:36:51;95073.38;;;8.44;100.00
55271;BME280;41132;47.162;9.470;2023-03-14T04:39:16;95080.16;;;8.53;100.00
55271;BME280;41132;47.162;9.470;2023-03-14T04:41:41;95081.38;;;8.65;100.00
55271;BME280;41132;47.162;9.470;2023-03-14T04:44:07;95075.56;;;8.55;100.00
55271;BME280;41132;47.162;9.470;2023-03-14T04:46:32;95077.81;;;8.43;100.00
55271;BME280;41132;47.162;9.470;2023-03-14T04:48:57;95068.00;;;8.37;100.00
55271;BME280;41132;47.162;9.470;2023-03-14T04:51:23;95060.97;;;8.37;100.00
55271;BME280;41132;47.162;9.470;2023-03-14T04:53:52;95053.63;;;8.41;100.00
55271;BME280;41132;47.162;9.470;2023-03-14T04:56:17;95056.03;;;8.66;100.00
55271;BME280;41132;47.162;9.470;2023-03-14T04:58:43;95040.03;;;8.61;100.00
55271;BME280;41132;47.162;9.470;2023-03-14T05:01:09;95037.78;;;8.43;100.00
55271;BME280;41132;47.162;9.470;2023-03-14T05:03:35;95022.28;;;8.18;100.00
55271;BME280;41132;47.162;9.470;2023-03-14T05:06:02;95030.13;;;8.18;100.00
55271;BME280;41132;47.162;9.470;2023-03-14T05:08:28;95010.38;;;8.15;100.00
55271;BME280;41132;47.162;9.470;2023-03-14T05:10:54;95005.06;;;8.09;100.00
55271;BME280;41132;47.162;9.470;2023-03-14T05:13:20;94995.16;;;8.19;100.00
55271;BME280;41132;47.162;9.470;2023-03-14T05:15:46;94963.84;;;7.96;100.00
55271;BME280;41132;47.162;9.470;2023-03-14T05:18:11;94973.31;;;7.97;100.00
55271;BME280;41132;47.162;9.470;2023-03-14T05:20:36;94983.41;;;8.00;100.00
55271;BME280;41132;47.162;9.470;2023-03-14T05:23:02;94970.78;;;8.04;100.00
55271;BME280;41132;47.162;9.470;2023-03-14T05:25:30;94965.66;;;8.10;100.00
55271;BME280;41132;47.162;9.470;2023-03-14T05:27:56;94951.63;;;8.11;100.00
55271;BME280;41132;47.162;9.470;2023-03-14T05:30:21;94937.28;;;8.07;100.00
55271;BME280;41132;47.162;9.470;2023-03-14T05:32:52;94938.19;;;8.14;100.00
55271;BME280;41132;47.162;9.470;2023-03-14T05:35:24;94929.06;;;8.10;100.00
55271;BME280;41132;47.162;9.470;2023-03-14T05:37:50;94923.31;;;8.15;100.00
55271;BME280;41132;47.162;9.470;2023-03-14T05:40:15;94928.28;;;8.25;100.00
55271;BME280;41132;47.162;9.470;2023-03-14T05:42:41;94925.03;;;8.23;100.00
55271;BME280;41132;47.162;9.470;2023-03-14T05:58:02;94926.31;;;8.27;100.00
55271;BME280;41132;47.162;9.470;2023-03-14T06:00:27;94928.03;;;8.34;100.00
55271;BME280;41132;47.162;9.470;2023-03-14T06:02:53;94929.53;;;8.29;100.00
55271;BME280;41132;47.162;9.470;2023-03-14T06:05:18;94933.66;;;8.08;100.00
55271;BME280;41132;47.162;9.470;2023-03-14T06:07:44;94936.81;;;7.89;100.00
55271;BME280;41132;47.162;9.470;2023-03-14T06:10:09;94929.84;;;7.81;100.00
55271;BME280;41132;47.162;9.470;2023-03-14T06:12:35;94923.53;;;7.76;100.00
55271;BME280;41132;47.162;9.470;2023-03-14T06:15:00;94930.94;;;7.87;100.00
55271;BME280;41132;47.162;9.470;2023-03-14T06:17:25;94923.81;;;7.81;100.00
55271;BME280;41132;47.162;9.470;2023-03-14T06:19:51;94921.75;;;7.91;100.00
55271;BME280;41132;47.162;9.470;2023-03-14T06:22:16;94925.38;;;8.05;100.00
55271;BME280;41132;47.162;9.470;2023-03-14T06:24:42;94914.66;;;8.00;100.00
55271;BME280;41132;47.162;9.470;2023-03-14T06:27:07;94918.09;;;8.00;100.00
55271;BME280;41132;47.162;9.470;2023-03-14T06:29:32;94891.19;;;7.77;100.00
55271;BME280;41132;47.162;9.470;2023-03-14T06:31:58;94905.72;;;7.79;100.00
55271;BME280;41132;47.162;9.470;2023-03-14T06:34:23;94914.63;;;7.85;100.00
55271;BME280;41132;47.162;9.470;2023-03-14T06:36:49;94911.09;;;7.78;100.00
55271;BME280;41132;47.162;9.470;2023-03-14T06:39:14;94923.47;;;7.99;100.00
55271;BME280;41132;47.162;9.470;2023-03-14T06:41:39;94913.84;;;7.99;100.00
55271;BME280;41132;47.162;9.470;2023-03-14T06:44:05;94909.88;;;8.03;100.00
55271;BME280;41132;47.162;9.470;2023-03-14T06:46:30;94905.44;;;7.89;100.00
55271;BME280;41132;47.162;9.470;2023-03-14T06:48:56;94906.72;;;7.93;100.00
55271;BME280;41132;47.162;9.470;2023-03-14T06:51:21;94913.81;;;7.84;100.00
55271;BME280;41132;47.162;9.470;2023-03-14T06:53:47;94920.13;;;7.90;100.00
55271;BME280;41132;47.162;9.470;2023-03-14T06:56:12;94925.06;;;7.85;100.00
55271;BME280;41132;47.162;9.470;2023-03-14T06:58:38;94912.44;;;7.73;100.00
55271;BME280;41132;47.162;9.470;2023-03-14T07:01:03;94913.72;;;7.78;100.00
55271;BME280;41132;47.162;9.470;2023-03-14T07:03:29;94917.97;;;7.93;100.00
55271;BME280;41132;47.162;9.470;2023-03-14T07:05:54;94933.28;;;7.97;100.00
55271;BME280;41132;47.162;9.470;2023-03-14T07:08:20;94927.72;;;8.00;100.00
55271;BME280;41132;47.162;9.470;2023-03-14T07:10:45;94929.59;;;8.06;100.00
55271;BME280;41132;47.162;9.470;2023-03-14T07:13:11;94910.22;;;7.85;100.00
55271;BME280;41132;47.162;9.470;2023-03-14T07:15:36;94925.81;;;8.08;100.00
55271;BME280;41132;47.162;9.470;2023-03-14T07:18:02;94926.03;;;8.07;100.00
55271;BME280;41132;47.162;9.470;2023-03-14T07:20:27;94930.00;;;8.18;100.00
55271;BME280;41132;47.162;9.470;2023-03-14T07:22:53;94924.41;;;8.21;100.00
55271;BME280;41132;47.162;9.470;2023-03-14T07:25:19;94939.09;;;8.22;100.00
55271;BME280;41132;47.162;9.470;2023-03-14T07:27:45;94952.16;;;8.07;100.00
55271;BME280;41132;47.162;9.470;2023-03-14T07:30:13;94946.19;;;7.98;100.00
55271;BME280;41132;47.162;9.470;2023-03-14T07:32:39;94953.06;;;8.14;100.00
55271;BME280;41132;47.162;9.470;2023-03-14T07:35:05;94947.56;;;8.24;100.00
55271;BME280;41132;47.162;9.470;2023-03-14T07:37:31;94937.59;;;8.42;100.00
55271;BME280;41132;47.162;9.470;2023-03-14T07:39:56;94947.53;;;8.62;100.00
55271;BME280;41132;47.162;9.470;2023-03-14T07:42:22;94950.84;;;8.55;100.00
55271;BME280;41132;47.162;9.470;2023-03-14T07:44:47;94953.72;;;8.61;100.00
55271;BME280;41132;47.162;9.470;2023-03-14T07:47:12;94957.63;;;8.65;100.00
55271;BME280;41132;47.162;9.470;2023-03-14T07:49:38;94957.69;;;8.71;100.00
55271;BME280;41132;47.162;9.470;2023-03-14T07:52:04;94952.03;;;8.68;100.00
55271;BME280;41132;47.162;9.470;2023-03-14T07:54:29;94959.13;;;8.74;100.00
55271;BME280;41132;47.162;9.470;2023-03-14T07:56:54;94956.34;;;8.61;100.00
55271;BME280;41132;47.162;9.470;2023-03-14T07:59:20;94946.72;;;8.61;100.00
55271;BME280;41132;47.162;9.470;2023-03-14T08:01:46;94951.66;;;8.71;100.00
55271;BME280;41132;47.162;9.470;2023-03-14T08:04:11;94940.28;;;8.93;100.00
55271;BME280;41132;47.162;9.470;2023-03-14T08:06:36;94946.25;;;9.24;100.00
55271;BME280;41132;47.162;9.470;2023-03-14T08:09:03;94940.41;;;9.43;100.00
55271;BME280;41132;47.162;9.470;2023-03-14T08:11:28;94936.13;;;9.57;100.00
55271;BME280;41132;47.162;9.470;2023-03-14T08:13:54;94937.84;;;9.71;100.00
55271;BME280;41132;47.162;9.470;2023-03-14T08:16:19;94930.72;;;9.87;100.00
55271;BME280;41132;47.162;9.470;2023-03-14T08:18:45;94932.94;;;10.11;100.00
55271;BME280;41132;47.162;9.470;2023-03-14T08:21:11;94921.25;;;10.42;100.00
55271;BME280;41132;47.162;9.470;2023-03-14T08:23:36;94934.59;;;10.82;100.00
55271;BME280;41132;47.162;9.470;2023-03-14T08:26:01;94930.25;;;11.09;100.00
55271;BME280;41132;47.162;9.470;2023-03-14T08:28:27;94930.47;;;10.66;100.00
55271;BME280;41132;47.162;9.470;2023-03-14T08:30:56;94924.88;;;10.82;100.00
55271;BME280;41132;47.162;9.470;2023-03-14T08:33:23;94943.25;;;11.37;100.00
55271;BME280;41132;47.162;9.470;2023-03-14T08:35:52;94929.56;;;11.62;100.00
55271;BME280;41132;47.162;9.470;2023-03-14T08:38:18;94940.59;;;11.31;100.00
55271;BME280;41132;47.162;9.470;2023-03-14T08:40:43;94950.31;;;10.82;100.00
55271;BME280;41132;47.162;9.470;2023-03-14T08:43:08;94924.94;;;10.26;100.00
55271;BME280;41132;47.162;9.470;2023-03-14T08:45:34;94934.97;;;10.44;100.00
55271;BME280;41132;47.162;9.470;2023-03-14T08:47:59;94938.69;;;10.98;100.00
55271;BME280;41132;47.162;9.470;2023-03-14T08:50:25;94937.44;;;10.87;100.00
55271;BME280;41132;47.162;9.470;2023-03-14T08:52:50;94945.41;;;11.14;100.00
55271;BME280;41132;47.162;9.470;2023-03-14T08:55:16;94931.34;;;11.41;100.00
55271;BME280;41132;47.162;9.470;2023-03-14T08:57:41;94939.44;;;11.53;100.00
55271;BME280;41132;47.162;9.470;2023-03-14T09:00:07;94930.16;;;11.57;100.00
55271;BME280;41132;47.162;9.470;2023-03-14T09:02:36;94913.41;;;11.85;100.00
55271;BME280;41132;47.162;9.470;2023-03-14T09:05:02;94919.50;;;11.85;99.50
55271;BME280;41132;47.162;9.470;2023-03-14T09:07:27;94920.31;;;11.99;95.90
55271;BME280;41132;47.162;9.470;2023-03-14T09:09:52;94919.09;;;11.95;97.23
55271;BME280;41132;47.162;9.470;2023-03-14T09:12:18;94921.75;;;11.95;100.00
55271;BME280;41132;47.162;9.470;2023-03-14T09:14:43;94927.75;;;11.82;100.00
55271;BME280;41132;47.162;9.470;2023-03-14T09:17:08;94923.91;;;11.78;96.86
55271;BME280;41132;47.162;9.470;2023-03-14T09:19:34;94935.25;;;11.79;95.91
55271;BME280;41132;47.162;9.470;2023-03-14T09:21:59;94935.03;;;11.54;92.79
55271;BME280;41132;47.162;9.470;2023-03-14T09:24:25;94925.09;;;11.49;94.42
55271;BME280;41132;47.162;9.470;2023-03-14T09:26:50;94926.28;;;11.26;94.15
55271;BME280;41132;47.162;9.470;2023-03-14T09:29:16;94924.03;;;11.23;96.62
55271;BME280;41132;47.162;9.470;2023-03-14T09:31:41;94936.16;;;11.24;98.09
55271;BME280;41132;47.162;9.470;2023-03-14T09:34:06;94949.88;;;11.20;98.75
55271;BME280;41132;47.162;9.470;2023-03-14T09:36:32;94951.66;;;11.06;95.66
55271;BME280;41132;47.162;9.470;2023-03-14T09:38:57;94951.09;;;11.17;100.00
55271;BME280;41132;47.162;9.470;2023-03-14T09:41:29;94964.81;;;11.19;100.00
55271;BME280;41132;47.162;9.470;2023-03-14T09:44:06;94967.88;;;11.29;100.00
55271;BME280;41132;47.162;9.470;2023-03-14T09:46:35;94966.28;;;11.42;97.85
55271;BME280;41132;47.162;9.470;2023-03-14T09:49:02;94955.88;;;11.07;95.45
55271;BME280;41132;47.162;9.470;2023-03-14T09:51:27;94951.00;;;10.97;96.48
55271;BME280;41132;47.162;9.470;2023-03-14T09:53:53;94946.50;;;10.84;96.85
55271;BME280;41132;47.162;9.470;2023-03-14T09:56:21;94949.97;;;10.92;100.00
55271;BME280;41132;47.162;9.470;2023-03-14T09:59:03;94958.91;;;11.04;98.25
55271;BME280;41132;47.162;9.470;2023-03-14T10:01:32;94960.47;;;10.92;97.94
55271;BME280;41132;47.162;9.470;2023-03-14T10:04:02;94967.97;;;10.95;99.91
55271;BME280;41132;47.162;9.470;2023-03-14T10:06:30;94965.16;;;11.03;100.00
55271;BME280;41132;47.162;9.470;2023-03-14T10:08:56;94965.78;;;11.05;100.00
55271;BME280;41132;47.162;9.470;2023-03-14T10:11:23;94959.56;;;11.19;100.00
55271;BME280;41132;47.162;9.470;2023-03-14T10:16:29;94952.31;;;11.28;100.00
55271;BME280;41132;47.162;9.470;2023-03-14T10:19:01;94948.28;;;11.32;100.00
55271;BME280;41132;47.162;9.470;2023-03-14T10:21:28;94945.72;;;11.59;97.42
55271;BME280;41132;47.162;9.470;2023-03-14T10:23:54;94946.13;;;11.56;98.18
55271;BME280;41132;47.162;9.470;2023-03-14T10:26:29;94950.72;;;11.27;98.03
55271;BME280;41132;47.162;9.470;2023-03-14T10:29:16;94960.66;;;11.38;98.59
55271;BME280;41132;47.162;9.470;2023-03-14T10:31:53;94984.44;;;11.30;98.96
55271;BME280;41132;47.162;9.470;2023-03-14T10:34:37;94986.88;;;11.25;100.00
55271;BME280;41132;47.162;9.470;2023-03-14T10:39:47;94993.88;;;11.11;100.00
55271;BME280;41132;47.162;9.470;2023-03-14T10:42:21;94992.81;;;11.05;100.00
55271;BME280;41132;47.162;9.470;2023-03-14T10:44:53;94984.91;;;10.99;100.00
55271;BME280;41132;47.162;9.470;2023-03-14T10:47:23;94991.63;;;11.08;100.00
55271;BME280;41132;47.162;9.470;2023-03-14T10:49:49;95002.69;;;10.97;100.00
55271;BME280;41132;47.162;9.470;2023-03-14T10:52:24;94986.97;;;11.03;100.00
55271;BME280;41132;47.162;9.470;2023-03-14T10:54:57;94998.91;;;11.13;100.00
55271;BME280;41132;47.162;9.470;2023-03-14T10:57:23;95015.09;;;11.16;100.00
55271;BME280;41132;47.162;9.470;2023-03-14T10:59:48;95016.66;;;11.04;100.00
55271;BME280;41132;47.162;9.470;2023-03-14T11:05:06;95003.00;;;10.80;100.00
55271;BME280;41132;47.162;9.470;2023-03-14T11:07:42;95019.38;;;10.82;100.00
55271;BME280;41132;47.162;9.470;2023-03-14T11:10:23;95021.41;;;10.87;100.00
55271;BME280;41132;47.162;9.470;2023-03-14T11:13:14;95023.47;;;10.92;100.00
55271;BME280;41132;47.162;9.470;2023-03-14T11:15:47;95019.19;;;10.84;100.00
55271;BME280;41132;47.162;9.470;2023-03-14T11:18:46;95018.22;;;10.92;100.00
55271;BME280;41132;47.162;9.470;2023-03-14T11:21:35;95017.28;;;11.06;100.00
55271;BME280;41132;47.162;9.470;2023-03-14T11:27:21;95011.34;;;10.91;100.00
55271;BME280;41132;47.162;9.470;2023-03-14T11:29:54;95019.34;;;11.11;100.00
55271;BME280;41132;47.162;9.470;2023-03-14T11:35:09;95023.22;;;10.86;100.00
55271;BME280;41132;47.162;9.470;2023-03-14T11:37:47;95023.63;;;10.83;100.00
55271;BME280;41132;47.162;9.470;2023-03-14T11:40:26;95032.66;;;10.74;100.00
55271;BME280;41132;47.162;9.470;2023-03-14T11:45:35;95044.94;;;10.74;100.00
55271;BME280;41132;47.162;9.470;2023-03-14T11:48:20;95052.72;;;10.89;100.00
55271;BME280;41132;47.162;9.470;2023-03-14T11:50:52;95054.91;;;10.85;100.00
55271;BME280;41132;47.162;9.470;2023-03-14T11:53:36;95061.19;;;10.84;100.00
55271;BME280;41132;47.162;9.470;2023-03-14T11:56:13;95073.25;;;10.78;100.00
55271;BME280;41132;47.162;9.470;2023-03-14T11:59:32;95051.97;;;10.66;100.00
55271;BME280;41132;47.162;9.470;2023-03-14T12:01:40;95045.00;;;10.80;100.00
55271;BME280;41132;47.162;9.470;2023-03-14T12:07:21;95086.97;;;10.80;100.00
55271;BME280;41132;47.162;9.470;2023-03-14T12:09:49;95094.28;;;10.85;100.00
55271;BME280;41132;47.162;9.470;2023-03-14T12:12:20;95092.03;;;10.54;100.00
55271;BME280;41132;47.162;9.470;2023-03-14T12:14:56;95094.69;;;10.60;100.00
55271;BME280;41132;47.162;9.470;2023-03-14T12:17:26;95105.19;;;10.60;100.00
55271;BME280;41132;47.162;9.470;2023-03-14T12:22:36;95117.53;;;10.38;100.00
55271;BME280;41132;47.162;9.470;2023-03-14T12:25:15;95123.53;;;10.32;100.00
55271;BME280;41132;47.162;9.470;2023-03-14T12:35:42;95172.25;;;10.27;100.00
55271;BME280;41132;47.162;9.470;2023-03-14T12:41:13;95176.69;;;10.26;100.00
55271;BME280;41132;47.162;9.470;2023-03-14T12:43:39;95157.13;;;9.92;100.00
55271;BME280;41132;47.162;9.470;2023-03-14T12:48:44;95170.75;;;9.66;100.00
55271;BME280;41132;47.162;9.470;2023-03-14T12:51:18;95175.56;;;9.99;100.00
55271;BME280;41132;47.162;9.470;2023-03-14T12:56:26;95194.41;;;9.73;100.00
55271;BME280;41132;47.162;9.470;2023-03-14T13:01:26;95182.41;;;9.34;100.00
55271;BME280;41132;47.162;9.470;2023-03-14T13:03:55;95182.13;;;9.14;100.00
55271;BME280;41132;47.162;9.470;2023-03-14T13:12:16;95227.69;;;9.19;100.00
55271;BME280;41132;47.162;9.470;2023-03-14T13:14:49;95242.47;;;8.97;100.00
55271;BME280;41132;47.162;9.470;2023-03-14T13:17:36;95252.53;;;8.86;100.00
55271;BME280;41132;47.162;9.470;2023-03-14T13:20:14;95242.88;;;8.86;100.00
55271;BME280;41132;47.162;9.470;2023-03-14T13:22:46;95234.16;;;8.71;100.00
55271;BME280;41132;47.162;9.470;2023-03-14T13:25:12;95251.94;;;8.98;100.00
55271;BME280;41132;47.162;9.470;2023-03-14T13:27:38;95274.75;;;9.28;100.00
55271;BME280;41132;47.162;9.470;2023-03-14T13:32:43;95253.25;;;9.17;100.00
55271;BME280;41132;47.162;9.470;2023-03-14T13:35:24;95281.28;;;9.32;100.00
55271;BME280;41132;47.162;9.470;2023-03-14T13:38:01;95281.28;;;9.47;100.00
55271;BME280;41132;47.162;9.470;2023-03-14T13:40:34;95279.44;;;9.70;100.00
55271;BME280;41132;47.162;9.470;2023-03-14T13:46:10;95294.41;;;9.76;100.00
55271;BME280;41132;47.162;9.470;2023-03-14T13:48:43;95309.00;;;9.79;100.00
55271;BME280;41132;47.162;9.470;2023-03-14T13:51:12;95328.41;;;9.85;100.00
55271;BME280;41132;47.162;9.470;2023-03-14T13:54:11;95319.91;;;9.82;100.00
55271;BME280;41132;47.162;9.470;2023-03-14T13:56:37;95335.00;;;9.66;100.00
55271;BME280;41132;47.162;9.470;2023-03-14T13:59:03;95355.44;;;9.47;99.27
55271;BME280;41132;47.162;9.470;2023-03-14T14:01:32;95366.03;;;9.54;100.00
55271;BME280;41132;47.162;9.470;2023-03-14T14:04:02;95352.91;;;9.77;100.00
55271;BME280;41132;47.162;9.470;2023-03-14T14:06:38;95365.25;;;9.68;100.00
55271;BME280;41132;47.162;9.470;2023-03-14T14:09:35;95388.09;;;9.59;100.00
55271;BME280;41132;47.162;9.470;2023-03-14T14:12:06;95400.13;;;9.69;100.00
55271;BME280;41132;47.162;9.470;2023-03-14T14:14:38;95399.50;;;9.20;100.00
55271;BME280;41132;47.162;9.470;2023-03-14T14:17:08;95402.75;;;8.99;96.48
55271;BME280;41132;47.162;9.470;2023-03-14T14:19:35;95415.34;;;8.96;97.33